createdAt,value
2019-04-30T00:01:26.336Z,102126.95
2019-04-30T00:04:05.760Z,102127.31
2019-04-30T00:06:39.337Z,102126.70
2019-04-30T00:09:09.759Z,102125.23
2019-04-30T00:11:37.225Z,102125.73
2019-04-30T00:14:05.837Z,102135.02
2019-04-30T00:16:36.225Z,102135.02
2019-04-30T00:19:06.181Z,102135.13
2019-04-30T00:21:36.161Z,102136.25
2019-04-30T00:24:10.140Z,102130.94
2019-04-30T00:26:35.608Z,102131.91
2019-04-30T00:29:05.254Z,102127.57
2019-04-30T00:31:34.948Z,102132.02
2019-04-30T00:34:05.020Z,102134.81
2019-04-30T00:36:36.884Z,102131.20
2019-04-30T00:39:08.875Z,102127.83
2019-04-30T00:41:35.404Z,102135.08
2019-04-30T00:44:05.389Z,102127.73
2019-04-30T00:46:36.243Z,102125.23
2019-04-30T00:49:09.819Z,102128.39
2019-04-30T00:51:35.482Z,102125.07
2019-04-30T00:54:05.665Z,102126.91
2019-04-30T00:56:35.509Z,102125.76
2019-04-30T00:59:07.149Z,102125.51
2019-04-30T01:01:43.523Z,102117.45
2019-04-30T01:04:29.597Z,102124.69
2019-04-30T01:07:00.183Z,102120.64
2019-04-30T01:09:28.219Z,102116.55
2019-04-30T01:11:56.926Z,102117.52
2019-04-30T01:14:28.205Z,102110.17
2019-04-30T01:16:55.586Z,102109.81
2019-04-30T01:19:30.106Z,102099.47
2019-04-30T01:21:54.366Z,102100.44
2019-04-30T01:24:23.425Z,102100.08
2019-04-30T01:26:54.558Z,102095.38
2019-04-30T01:29:23.891Z,102096.09
2019-04-30T01:31:52.340Z,102093.20
2019-04-30T01:34:20.833Z,102088.61
2019-04-30T01:36:52.155Z,102084.13
2019-04-30T01:39:23.641Z,102091.27
2019-04-30T01:41:50.460Z,102089.08
2019-04-30T01:44:19.563Z,102088.86
2019-04-30T01:46:51.459Z,102092.73
2019-04-30T01:49:20.389Z,102088.65
2019-04-30T01:51:52.913Z,102097.81
2019-04-30T01:54:23.986Z,102101.69
2019-04-30T01:57:03.172Z,102082.77
2019-04-30T01:59:33.254Z,102088.43
2019-04-30T02:02:01.711Z,102086.75
2019-04-30T02:04:31.510Z,102085.20
2019-04-30T02:07:00.134Z,102093.30
2019-04-30T02:09:28.748Z,102087.28
2019-04-30T02:11:57.425Z,102086.20
2019-04-30T02:14:25.863Z,102095.58
2019-04-30T02:16:54.546Z,102091.75
2019-04-30T02:19:23.288Z,102085.38
2019-04-30T02:21:51.730Z,102092.61
2019-04-30T02:24:20.169Z,102095.25
2019-04-30T02:26:48.725Z,102095.25
2019-04-30T02:29:19.015Z,102091.89
2019-04-30T02:31:49.611Z,102085.87
2019-04-30T02:34:22.211Z,102084.19
2019-04-30T02:36:52.498Z,102081.53
2019-04-30T02:39:20.941Z,102085.15
2019-04-30T02:41:50.592Z,102084.43
2019-04-30T02:44:20.707Z,102083.71
2019-04-30T02:46:51.785Z,102086.61
2019-04-30T02:49:21.043Z,102087.21
2019-04-30T02:51:50.715Z,102079.88
2019-04-30T02:54:25.275Z,102084.48
2019-04-30T02:56:55.354Z,102083.87
2019-04-30T02:59:23.796Z,102089.30
2019-04-30T03:01:52.664Z,102089.55
2019-04-30T03:04:21.138Z,102091.83
2019-04-30T03:06:50.274Z,102091.48
2019-04-30T03:09:20.241Z,102087.50
2019-04-30T03:11:49.887Z,102082.77
2019-04-30T03:14:20.114Z,102077.72
2019-04-30T03:16:54.214Z,102084.95
2019-04-30T03:19:24.291Z,102083.50
2019-04-30T03:22:03.671Z,102082.78
2019-04-30T03:24:32.105Z,102078.70
2019-04-30T03:27:00.535Z,102081.58
2019-04-30T03:29:30.251Z,102073.28
2019-04-30T03:32:02.528Z,102077.25
2019-04-30T03:34:32.508Z,102081.60
2019-04-30T03:37:01.951Z,102072.71
2019-04-30T03:39:33.638Z,102073.06
2019-04-30T03:42:00.031Z,102078.27
2019-04-30T03:44:31.758Z,102079.69
2019-04-30T03:46:59.514Z,102080.06
2019-04-30T03:49:29.835Z,102073.19
2019-04-30T03:51:59.796Z,102070.31
2019-04-30T03:54:29.329Z,102070.55
2019-04-30T03:57:00.666Z,102070.69
2019-04-30T03:59:30.183Z,102068.64
2019-04-30T04:02:03.614Z,102070.80
2019-04-30T04:04:45.860Z,102069.37
2019-04-30T04:07:15.204Z,102071.64
2019-04-30T04:09:59.811Z,102075.13
2019-04-30T04:12:30.333Z,102079.93
2019-04-30T04:15:00.733Z,102082.58
2019-04-30T04:17:31.521Z,102087.27
2019-04-30T04:19:59.714Z,102083.42
2019-04-30T04:22:30.605Z,102086.29
2019-04-30T04:25:00.088Z,102084.63
2019-04-30T04:27:30.297Z,102084.75
2019-04-30T04:30:01.223Z,102086.88
2019-04-30T04:32:30.804Z,102082.06
2019-04-30T04:35:00.299Z,102084.23
2019-04-30T04:37:30.238Z,102081.20
2019-04-30T04:39:59.775Z,102085.22
2019-04-30T04:42:30.012Z,102082.44
2019-04-30T04:44:59.866Z,102086.61
2019-04-30T04:47:30.744Z,102078.88
2019-04-30T04:50:00.753Z,102076.45
2019-04-30T04:52:31.586Z,102074.03
2019-04-30T04:55:00.426Z,102071.45
2019-04-30T04:57:30.523Z,102071.67
2019-04-30T05:00:06.395Z,102076.44
2019-04-30T05:02:32.770Z,102075.31
2019-04-30T05:05:01.517Z,102076.34
2019-04-30T05:07:29.951Z,102074.88
2019-04-30T05:10:00.792Z,102084.72
2019-04-30T05:12:29.749Z,102084.56
2019-04-30T05:14:59.739Z,102084.02
2019-04-30T05:17:29.631Z,102082.78
2019-04-30T05:19:58.945Z,102088.08
2019-04-30T05:22:29.330Z,102090.83
2019-04-30T05:24:58.916Z,102087.77
2019-04-30T05:27:27.710Z,102079.64
2019-04-30T05:29:56.148Z,102086.08
2019-04-30T05:32:24.854Z,102083.25
2019-04-30T05:34:53.330Z,102091.14
2019-04-30T05:37:22.555Z,102094.33
2019-04-30T05:39:51.267Z,102091.47
2019-04-30T05:42:19.815Z,102086.59
2019-04-30T05:44:49.673Z,102084.11
2019-04-30T05:47:19.624Z,102086.59
2019-04-30T05:49:48.874Z,102084.72
2019-04-30T05:52:19.724Z,102082.82
2019-04-30T05:54:50.447Z,102089.78
2019-04-30T05:57:19.766Z,102085.73
2019-04-30T05:59:48.874Z,102088.81
2019-04-30T06:02:19.320Z,102094.92
2019-04-30T06:04:49.000Z,102093.98
2019-04-30T06:07:18.842Z,102087.45
2019-04-30T06:09:50.712Z,102090.54
2019-04-30T06:12:32.766Z,102092.30
2019-04-30T06:15:05.231Z,102079.16
2019-04-30T06:17:34.229Z,102078.95
2019-04-30T06:20:02.670Z,102080.74
2019-04-30T06:22:31.198Z,102087.19
2019-04-30T06:24:59.697Z,102086.34
2019-04-30T06:27:29.153Z,102078.85
2019-04-30T06:29:58.493Z,102077.22
2019-04-30T06:32:27.043Z,102076.20
2019-04-30T06:34:55.642Z,102075.00
2019-04-30T06:37:24.383Z,102081.50
2019-04-30T06:39:52.816Z,102080.36
2019-04-30T06:42:21.494Z,102082.45
2019-04-30T06:44:50.879Z,102070.87
2019-04-30T06:47:31.951Z,102074.92
2019-04-30T06:49:49.536Z,102074.83
2019-04-30T06:52:21.434Z,102065.14
2019-04-30T06:54:49.880Z,102065.27
2019-04-30T06:57:19.833Z,102068.39
2019-04-30T06:59:51.194Z,102064.63
2019-04-30T07:02:19.678Z,102057.22
2019-04-30T07:04:49.087Z,102062.22
2019-04-30T07:07:22.965Z,102061.50
2019-04-30T07:10:00.677Z,102056.82
2019-04-30T07:12:30.616Z,102055.11
2019-04-30T07:14:59.507Z,102049.38
2019-04-30T07:17:29.204Z,102054.33
2019-04-30T07:19:59.688Z,102049.44
2019-04-30T07:22:37.554Z,102048.18
2019-04-30T07:24:59.551Z,102045.09
2019-04-30T07:27:30.148Z,102041.86
2019-04-30T07:29:59.631Z,102039.30
2019-04-30T07:32:28.855Z,102039.20
2019-04-30T07:34:59.469Z,102037.25
2019-04-30T07:37:29.262Z,102043.70
2019-04-30T07:39:58.943Z,102044.92
2019-04-30T07:42:29.402Z,102041.27
2019-04-30T07:45:00.444Z,102035.80
2019-04-30T07:47:29.604Z,102034.13
2019-04-30T07:50:00.650Z,102043.52
2019-04-30T07:52:33.295Z,102034.16
2019-04-30T07:55:00.668Z,102034.69
2019-04-30T07:57:32.237Z,102037.34
2019-04-30T08:00:00.489Z,102028.66
2019-04-30T08:02:36.930Z,102036.17
2019-04-30T08:05:14.420Z,102033.97
2019-04-30T08:07:42.943Z,102042.19
2019-04-30T08:10:12.270Z,102032.98
2019-04-30T08:12:43.379Z,102039.48
2019-04-30T08:15:11.308Z,102045.84
2019-04-30T08:17:39.773Z,102040.42
2019-04-30T08:20:08.861Z,102043.27
2019-04-30T08:22:40.900Z,102039.73
2019-04-30T08:25:09.623Z,102031.33
2019-04-30T08:27:39.268Z,102034.95
2019-04-30T08:30:22.908Z,102027.05
2019-04-30T08:32:39.012Z,102037.22
2019-04-30T08:35:09.924Z,102029.63
2019-04-30T08:37:38.583Z,102032.43
2019-04-30T08:40:08.682Z,102037.75
2019-04-30T08:42:40.184Z,102041.22
2019-04-30T08:45:09.527Z,102034.33
2019-04-30T08:47:39.235Z,102041.13
2019-04-30T08:50:09.921Z,102046.94
2019-04-30T08:52:39.453Z,102047.22
2019-04-30T08:55:16.189Z,102042.05
2019-04-30T08:57:39.540Z,102033.05
2019-04-30T09:00:09.203Z,102033.51
2019-04-30T09:02:39.013Z,102034.75
2019-04-30T09:05:24.826Z,102035.70
2019-04-30T09:07:53.294Z,102037.62
2019-04-30T09:10:21.745Z,102031.84
2019-04-30T09:12:51.938Z,102031.11
2019-04-30T09:15:20.575Z,102032.66
2019-04-30T09:18:01.159Z,102028.25
2019-04-30T09:20:20.017Z,102031.62
2019-04-30T09:22:49.648Z,102023.59
2019-04-30T09:25:20.561Z,102026.19
2019-04-30T09:27:49.406Z,102022.42
2019-04-30T09:30:18.858Z,102024.73
2019-04-30T09:32:47.579Z,102011.23
2019-04-30T09:35:16.079Z,102016.48
2019-04-30T09:37:44.661Z,102017.02
2019-04-30T09:40:17.980Z,102017.94
2019-04-30T09:42:44.514Z,102007.75
2019-04-30T09:45:13.126Z,102006.67
2019-04-30T09:47:42.127Z,102002.69
2019-04-30T09:50:12.584Z,102009.09
2019-04-30T09:52:41.757Z,102005.08
2019-04-30T09:55:10.888Z,102004.75
2019-04-30T09:57:39.524Z,102006.75
2019-04-30T10:00:10.214Z,101995.38
2019-04-30T10:02:38.977Z,102006.59
2019-04-30T10:05:11.857Z,101996.27
2019-04-30T10:07:40.847Z,101997.13
2019-04-30T10:10:11.660Z,101992.23
2019-04-30T10:12:40.264Z,101991.70
2019-04-30T10:15:11.009Z,101985.41
2019-04-30T10:17:43.758Z,101988.98
2019-04-30T10:20:13.865Z,101985.58
2019-04-30T10:22:42.314Z,101985.50
2019-04-30T10:25:11.488Z,101982.33
2019-04-30T10:27:39.970Z,101983.03
2019-04-30T10:30:10.875Z,101977.86
2019-04-30T10:32:39.545Z,101967.22
2019-04-30T10:35:08.860Z,101971.81
2019-04-30T10:37:38.734Z,101971.22
2019-04-30T10:40:10.687Z,101963.67
2019-04-30T10:42:39.271Z,101965.86
2019-04-30T10:45:10.039Z,101968.78
2019-04-30T10:47:39.320Z,101964.31
2019-04-30T10:50:09.882Z,101958.59
2019-04-30T10:52:40.768Z,101957.33
2019-04-30T10:55:09.942Z,101958.08
2019-04-30T10:57:39.712Z,101959.74
2019-04-30T11:00:13.714Z,101959.95
2019-04-30T11:02:42.164Z,101954.44
2019-04-30T11:05:11.271Z,101958.98
2019-04-30T11:07:39.726Z,101961.16
2019-04-30T11:10:10.634Z,101961.79
2019-04-30T11:12:39.194Z,101955.65
2019-04-30T11:15:08.175Z,101948.58
2019-04-30T11:17:36.812Z,101949.20
2019-04-30T11:20:07.369Z,101943.38
2019-04-30T11:22:36.051Z,101949.41
2019-04-30T11:25:08.058Z,101944.92
2019-04-30T11:27:40.181Z,101942.53
2019-04-30T11:30:20.759Z,101944.81
2019-04-30T11:32:39.206Z,101948.87
2019-04-30T11:35:09.970Z,101944.36
2019-04-30T11:37:38.428Z,101933.43
2019-04-30T11:40:11.899Z,101933.23
2019-04-30T11:42:40.379Z,101930.19
2019-04-30T11:45:09.707Z,101927.68
2019-04-30T11:47:39.572Z,101931.66
2019-04-30T11:50:11.225Z,101929.15
2019-04-30T11:52:39.668Z,101924.97
2019-04-30T11:55:09.709Z,101920.17
2019-04-30T11:57:39.698Z,101917.16
2019-04-30T12:00:13.241Z,101919.55
2019-04-30T12:02:42.034Z,101916.89
2019-04-30T12:05:11.539Z,101918.63
2019-04-30T12:07:53.919Z,101918.58
2019-04-30T12:10:24.047Z,101902.44
2019-04-30T12:12:52.529Z,101905.03
2019-04-30T12:15:20.977Z,101901.23
2019-04-30T12:17:49.447Z,101905.06
2019-04-30T12:20:19.683Z,101901.42
2019-04-30T12:22:49.333Z,101903.02
2019-04-30T12:25:18.724Z,101901.86
2019-04-30T12:27:48.828Z,101891.95
2019-04-30T12:30:20.581Z,101897.23
2019-04-30T12:32:49.341Z,101900.12
2019-04-30T12:35:18.352Z,101897.60
2019-04-30T12:37:49.324Z,101890.09
2019-04-30T12:40:26.651Z,101890.09
2019-04-30T12:42:48.627Z,101889.23
2019-04-30T12:45:19.453Z,101889.22
2019-04-30T12:47:49.638Z,101889.98
2019-04-30T12:50:20.066Z,101896.95
2019-04-30T12:52:53.357Z,101893.59
2019-04-30T12:55:23.440Z,101895.42
2019-04-30T12:57:58.731Z,101892.72
2019-04-30T13:00:23.270Z,101887.86
2019-04-30T13:02:51.652Z,101888.78
2019-04-30T13:05:20.349Z,101890.00
2019-04-30T13:07:50.311Z,101886.81
2019-04-30T13:10:20.897Z,101888.65
2019-04-30T13:12:50.430Z,101882.50
2019-04-30T13:15:19.871Z,101877.72
2019-04-30T13:17:50.085Z,101880.41
2019-04-30T13:20:23.738Z,101880.89
2019-04-30T13:22:49.372Z,101872.92
2019-04-30T13:25:29.542Z,101869.61
2019-04-30T13:27:49.734Z,101869.11
2019-04-30T13:30:22.908Z,101860.00
2019-04-30T13:32:55.433Z,101860.14
2019-04-30T13:35:23.880Z,101860.42
2019-04-30T13:38:06.349Z,101861.26
2019-04-30T13:40:39.409Z,101863.18
2019-04-30T13:43:09.480Z,101861.48
2019-04-30T13:45:38.828Z,101859.76
2019-04-30T13:48:08.955Z,101852.09
2019-04-30T13:50:39.141Z,101850.73
2019-04-30T13:53:08.860Z,101853.85
2019-04-30T13:55:45.721Z,101856.23
2019-04-30T13:58:07.797Z,101857.83
2019-04-30T14:00:36.325Z,101846.53
2019-04-30T14:03:09.303Z,101848.78
2019-04-30T14:05:37.854Z,101852.20
2019-04-30T14:08:20.094Z,101847.77
2019-04-30T14:14:36.602Z,101847.61
2019-04-30T14:17:05.292Z,101841.95
2019-04-30T14:19:33.721Z,101831.28
2019-04-30T14:22:02.239Z,101835.33
2019-04-30T14:24:30.697Z,101832.05
2019-04-30T14:26:59.220Z,101835.03
2019-04-30T14:29:30.128Z,101827.98
2019-04-30T14:31:58.843Z,101832.65
2019-04-30T14:34:28.598Z,101840.95
2019-04-30T14:36:59.355Z,101837.95
2019-04-30T14:39:29.183Z,101835.39
2019-04-30T14:42:00.161Z,101829.16
2019-04-30T14:44:31.809Z,101823.21
2019-04-30T14:47:12.667Z,101829.03
2019-04-30T14:50:02.599Z,101824.36
2019-04-30T14:52:29.389Z,101824.36
2019-04-30T14:55:02.658Z,101834.94
2019-04-30T14:57:39.336Z,101826.16
2019-04-30T15:00:10.397Z,101829.73
2019-04-30T15:02:43.926Z,101815.77
2019-04-30T15:05:13.291Z,101824.48
2019-04-30T15:07:42.535Z,101823.44
2019-04-30T15:10:12.421Z,101828.73
2019-04-30T15:12:40.851Z,101822.30
2019-04-30T15:15:10.235Z,101820.52
2019-04-30T15:17:41.202Z,101817.06
2019-04-30T15:20:10.228Z,101821.64
2019-04-30T15:22:41.201Z,101818.37
2019-04-30T15:25:10.670Z,101822.69
2019-04-30T15:27:45.017Z,101821.23
2019-04-30T15:30:10.728Z,101820.67
2019-04-30T15:32:40.859Z,101822.06
2019-04-30T15:35:09.971Z,101818.40
2019-04-30T15:37:40.045Z,101820.84
2019-04-30T15:40:09.059Z,101825.25
2019-04-30T15:42:39.360Z,101823.11
2019-04-30T15:45:09.302Z,101813.04
2019-04-30T15:47:38.734Z,101816.13
2019-04-30T15:50:09.672Z,101815.63
2019-04-30T15:52:38.702Z,101813.11
2019-04-30T15:55:09.198Z,101811.05
2019-04-30T15:57:39.562Z,101811.05
2019-04-30T16:00:08.331Z,101809.53
2019-04-30T16:02:38.893Z,101805.98
2019-04-30T16:05:08.991Z,101803.53
2019-04-30T16:07:40.719Z,101806.48
2019-04-30T16:10:15.310Z,101794.12
2019-04-30T16:12:45.392Z,101794.12
2019-04-30T16:15:14.124Z,101797.35
2019-04-30T16:17:48.904Z,101804.42
2019-04-30T16:20:17.100Z,101806.61
2019-04-30T16:22:45.596Z,101800.70
2019-04-30T16:25:14.458Z,101799.45
2019-04-30T16:27:42.898Z,101803.30
2019-04-30T16:30:11.881Z,101802.27
2019-04-30T16:32:40.527Z,101801.32
2019-04-30T16:35:09.187Z,101790.75
2019-04-30T16:37:38.769Z,101801.94
2019-04-30T16:40:10.345Z,101798.00
2019-04-30T16:42:39.011Z,101798.78
2019-04-30T16:45:09.317Z,101793.27
2019-04-30T16:47:38.030Z,101793.39
2019-04-30T16:50:09.041Z,101791.11
2019-04-30T16:52:39.366Z,101789.95
2019-04-30T16:55:08.322Z,101785.42
2019-04-30T16:57:37.126Z,101793.61
2019-04-30T17:00:09.348Z,101800.09
2019-04-30T17:02:41.057Z,101795.23
2019-04-30T17:05:19.468Z,101789.73
2019-04-30T17:08:09.372Z,101790.66
2019-04-30T17:10:42.382Z,101785.54
2019-04-30T17:13:21.662Z,101791.45
2019-04-30T17:15:51.729Z,101792.22
2019-04-30T17:18:20.178Z,101789.59
2019-04-30T17:20:49.300Z,101785.89
2019-04-30T17:23:19.294Z,101784.61
2019-04-30T17:25:47.948Z,101784.75
2019-04-30T17:28:16.390Z,101794.33
2019-04-30T17:30:44.870Z,101785.78
2019-04-30T17:33:13.293Z,101781.94
2019-04-30T17:35:41.905Z,101785.09
2019-04-30T17:38:10.350Z,101783.72
2019-04-30T17:40:39.010Z,101787.67
2019-04-30T17:43:07.480Z,101784.38
2019-04-30T17:45:35.908Z,101787.48
2019-04-30T17:48:04.334Z,101791.75
2019-04-30T17:50:32.989Z,101790.81
2019-04-30T17:53:01.437Z,101791.54
2019-04-30T17:55:30.098Z,101791.88
2019-04-30T17:57:58.654Z,101797.97
2019-04-30T18:00:29.296Z,101789.54
2019-04-30T18:02:57.820Z,101790.66
2019-04-30T18:05:26.475Z,101796.09
2019-04-30T18:07:54.906Z,101793.83
2019-04-30T18:10:23.541Z,101791.56
2019-04-30T18:12:52.377Z,101802.73
2019-04-30T18:15:22.506Z,101793.61
2019-04-30T18:17:55.347Z,101797.84
2019-04-30T18:20:29.216Z,101798.92
2019-04-30T18:23:11.149Z,101806.16
2019-04-30T18:25:44.288Z,101798.69
2019-04-30T18:28:12.725Z,101798.23
2019-04-30T18:30:41.524Z,101795.40
2019-04-30T18:33:10.125Z,101794.42
2019-04-30T18:35:38.904Z,101801.81
2019-04-30T18:38:09.602Z,101803.19
2019-04-30T18:40:39.536Z,101796.70
2019-04-30T18:43:08.259Z,101794.23
2019-04-30T18:45:37.026Z,101793.91
2019-04-30T18:48:05.648Z,101791.59
2019-04-30T18:50:34.096Z,101790.93
2019-04-30T18:53:04.161Z,101797.14
2019-04-30T18:55:32.830Z,101795.95
2019-04-30T18:58:01.620Z,101787.30
2019-04-30T19:00:31.952Z,101784.30
2019-04-30T19:03:00.739Z,101798.34
2019-04-30T19:05:31.134Z,101792.00
2019-04-30T19:08:03.947Z,101787.99
2019-04-30T19:10:50.845Z,101798.37
2019-04-30T19:13:30.262Z,101793.02
2019-04-30T19:16:19.765Z,101797.38
2019-04-30T19:18:40.757Z,101804.73
2019-04-30T19:21:10.358Z,101798.08
2019-04-30T19:23:39.115Z,101793.88
2019-04-30T19:26:07.825Z,101792.55
2019-04-30T19:28:36.251Z,101798.41
2019-04-30T19:31:04.848Z,101796.75
2019-04-30T19:33:33.273Z,101787.72
2019-04-30T19:36:01.710Z,101787.41
2019-04-30T19:38:30.157Z,101789.08
2019-04-30T19:40:58.584Z,101786.03
2019-04-30T19:43:28.594Z,101786.36
2019-04-30T19:45:59.170Z,101796.03
2019-04-30T19:48:27.639Z,101798.05
2019-04-30T19:50:56.122Z,101794.03
2019-04-30T19:53:24.592Z,101800.69
2019-04-30T19:55:53.016Z,101798.33
2019-04-30T19:58:29.561Z,101799.02
2019-04-30T20:00:51.979Z,101798.32
2019-04-30T20:03:20.418Z,101801.97
2019-04-30T20:05:48.852Z,101807.95
2019-04-30T20:08:17.369Z,101806.27
2019-04-30T20:10:45.794Z,101803.91
2019-04-30T20:13:14.225Z,101818.59
2019-04-30T20:18:16.288Z,101813.40
2019-04-30T20:20:46.526Z,101814.72
2019-04-30T20:23:14.946Z,101815.05
2019-04-30T20:25:43.440Z,101810.57
2019-04-30T20:28:12.301Z,101809.23
2019-04-30T20:30:41.036Z,101813.89
2019-04-30T20:33:09.741Z,101811.55
2019-04-30T20:35:38.989Z,101809.36
2019-04-30T20:38:22.125Z,101812.20
2019-04-30T20:40:59.494Z,101807.86
2019-04-30T20:43:21.689Z,101807.70
2019-04-30T20:45:50.368Z,101807.84
2019-04-30T20:48:18.927Z,101808.83
2019-04-30T20:50:47.515Z,101810.82
2019-04-30T20:53:16.040Z,101803.13
2019-04-30T20:55:44.605Z,101805.12
2019-04-30T20:58:13.103Z,101801.44
2019-04-30T21:00:41.714Z,101799.11
2019-04-30T21:03:10.155Z,101794.77
2019-04-30T21:05:38.707Z,101795.26
2019-04-30T21:08:07.692Z,101791.77
2019-04-30T21:10:36.124Z,101795.43
2019-04-30T21:13:04.814Z,101785.75
2019-04-30T21:15:33.331Z,101785.42
2019-04-30T21:18:01.778Z,101794.75
2019-04-30T21:20:30.324Z,101792.91
2019-04-30T21:22:59.738Z,101789.41
2019-04-30T21:25:29.135Z,101793.76
2019-04-30T21:28:00.009Z,101785.75
2019-04-30T21:30:28.834Z,101783.09
2019-04-30T21:33:10.738Z,101776.76
2019-04-30T21:35:40.915Z,101781.09
2019-04-30T21:38:09.604Z,101768.75
2019-04-30T21:40:39.455Z,101769.09
2019-04-30T21:43:08.320Z,101763.08
2019-04-30T21:45:36.760Z,101761.75
2019-04-30T21:48:05.554Z,101755.42
2019-04-30T21:50:33.978Z,101751.75
2019-04-30T21:53:02.407Z,101748.91
2019-04-30T21:55:31.397Z,101746.92
2019-04-30T21:57:59.853Z,101750.41
2019-04-30T22:00:34.264Z,101753.08
2019-04-30T22:03:03.764Z,101751.74
2019-04-30T22:05:33.528Z,101760.77
2019-04-30T22:08:01.951Z,101761.77
2019-04-30T22:10:30.374Z,101754.08
2019-04-30T22:12:58.857Z,101748.73
2019-04-30T22:15:27.282Z,101764.39
2019-04-30T22:17:55.726Z,101758.86
2019-04-30T22:20:24.453Z,101752.37
2019-04-30T22:22:52.886Z,101753.70
2019-04-30T22:25:21.348Z,101755.52
2019-04-30T22:27:49.807Z,101758.36
2019-04-30T22:30:18.536Z,101754.02
2019-04-30T22:32:46.969Z,101753.34
2019-04-30T22:35:26.783Z,101745.99
2019-04-30T22:38:06.304Z,101741.98
2019-04-30T22:40:34.776Z,101742.98
2019-04-30T22:43:03.393Z,101736.66
2019-04-30T22:45:33.473Z,101737.34
2019-04-30T22:48:01.949Z,101733.99
2019-04-30T22:50:30.557Z,101737.52
2019-04-30T22:52:58.982Z,101740.32
2019-04-30T22:55:27.440Z,101734.30
2019-04-30T22:57:55.888Z,101731.48
2019-04-30T23:00:32.103Z,101727.14
2019-04-30T23:03:02.196Z,101735.79
2019-04-30T23:05:30.642Z,101735.28
2019-04-30T23:07:59.076Z,101725.89
2019-04-30T23:10:27.857Z,101726.03
2019-04-30T23:12:56.284Z,101726.89
2019-04-30T23:15:24.967Z,101723.23
2019-04-30T23:17:53.509Z,101719.60
2019-04-30T23:20:21.947Z,101722.61
2019-04-30T23:22:50.453Z,101714.27
2019-04-30T23:25:18.936Z,101714.27
2019-04-30T23:27:47.499Z,101706.75
2019-04-30T23:30:16.298Z,101700.56
2019-04-30T23:32:45.014Z,101703.72
2019-04-30T23:35:13.441Z,101698.89
2019-04-30T23:37:41.873Z,101697.56
2019-04-30T23:40:22.600Z,101705.56
2019-04-30T23:42:52.155Z,101705.22
2019-04-30T23:45:20.834Z,101694.36
2019-04-30T23:47:49.834Z,101691.87
2019-04-30T23:50:18.262Z,101688.52
2019-04-30T23:52:46.733Z,101683.19
2019-04-30T23:55:16.985Z,101696.52
2019-04-30T23:57:45.410Z,101682.34
